createdAt,value
2023-02-21T00:00:33.931Z,1006.31
2023-02-21T00:01:33.931Z,1006.50
2023-02-21T00:02:33.945Z,1006.48
2023-02-21T00:03:33.958Z,1006.44
2023-02-21T00:04:33.969Z,1006.55
2023-02-21T00:05:34.044Z,1006.39
2023-02-21T00:06:33.993Z,1006.45
2023-02-21T00:07:34.008Z,1006.54
2023-02-21T00:08:34.020Z,1006.55
2023-02-21T00:09:34.037Z,1006.54
2023-02-21T00:10:34.049Z,1006.38
2023-02-21T00:11:34.059Z,1006.55
2023-02-21T00:12:34.078Z,1006.51
2023-02-21T00:13:34.082Z,1006.55
2023-02-21T00:14:34.097Z,1006.60
2023-02-21T00:15:34.110Z,1006.61
2023-02-21T00:16:34.245Z,1006.55
2023-02-21T00:17:34.147Z,1006.54
2023-02-21T00:18:34.146Z,1006.55
2023-02-21T00:19:34.157Z,1006.57
2023-02-21T00:20:34.173Z,1006.54
2023-02-21T00:21:34.198Z,1006.50
2023-02-21T00:22:34.197Z,1006.58
2023-02-21T00:23:34.210Z,1006.50
2023-02-21T00:24:34.232Z,1006.52
2023-02-21T00:25:34.235Z,1006.46
2023-02-21T00:26:34.268Z,1006.49
2023-02-21T00:27:34.262Z,1006.40
2023-02-21T00:28:34.273Z,1006.51
2023-02-21T00:29:34.289Z,1006.48
2023-02-21T00:30:34.416Z,1006.47
2023-02-21T00:31:34.354Z,1006.41
2023-02-21T00:32:34.422Z,1006.40
2023-02-21T00:33:34.377Z,1006.48
2023-02-21T00:34:34.346Z,1006.40
2023-02-21T00:35:34.360Z,1006.48
2023-02-21T00:36:34.372Z,1006.49
2023-02-21T00:37:34.392Z,1006.49
2023-02-21T00:38:34.397Z,1006.49
2023-02-21T00:39:34.410Z,1006.49
2023-02-21T00:40:34.420Z,1006.45
2023-02-21T00:41:34.437Z,1006.51
2023-02-21T00:42:34.445Z,1006.47
2023-02-21T00:43:36.434Z,1006.54
2023-02-21T00:44:34.478Z,1006.50
2023-02-21T00:45:34.489Z,1006.46
2023-02-21T00:46:34.495Z,1006.51
2023-02-21T00:47:34.507Z,1006.42
2023-02-21T00:48:34.520Z,1006.37
2023-02-21T00:49:34.550Z,1006.27
2023-02-21T00:50:34.582Z,1006.41
2023-02-21T00:51:34.567Z,1006.42
2023-02-21T00:52:34.573Z,1006.46
2023-02-21T00:53:34.582Z,1006.39
2023-02-21T00:54:34.600Z,1006.35
2023-02-21T00:55:34.607Z,1006.41
2023-02-21T00:56:34.618Z,1006.37
2023-02-21T00:57:34.632Z,1006.31
2023-02-21T00:58:34.644Z,1006.33
2023-02-21T00:59:34.660Z,1006.39
2023-02-21T01:00:34.668Z,1006.47
2023-02-21T01:01:34.773Z,1006.34
2023-02-21T01:02:34.700Z,1006.35
2023-02-21T01:03:34.711Z,1006.39
2023-02-21T01:04:34.727Z,1006.31
2023-02-21T01:05:34.733Z,1006.43
2023-02-21T01:06:34.747Z,1006.26
2023-02-21T01:07:34.771Z,1006.38
2023-02-21T01:08:34.772Z,1006.12
2023-02-21T01:09:34.788Z,1006.38
2023-02-21T01:10:34.804Z,1006.34
2023-02-21T01:11:34.811Z,1006.29
2023-02-21T01:12:34.821Z,1006.35
2023-02-21T01:13:34.839Z,1006.38
2023-02-21T01:14:34.857Z,1006.32
2023-02-21T01:15:34.921Z,1006.39
2023-02-21T01:16:34.883Z,1006.34
2023-02-21T01:17:34.884Z,1006.27
2023-02-21T01:18:34.898Z,1006.21
2023-02-21T01:19:34.911Z,1006.18
2023-02-21T01:20:34.921Z,1006.13
2023-02-21T01:21:34.934Z,1006.22
2023-02-21T01:22:34.951Z,1006.17
2023-02-21T01:23:34.959Z,1006.16
2023-02-21T01:24:34.987Z,1006.13
2023-02-21T01:25:34.988Z,1006.08
2023-02-21T01:26:34.996Z,1006.13
2023-02-21T01:27:35.009Z,1006.13
2023-02-21T01:28:35.021Z,1006.04
2023-02-21T01:29:35.039Z,1006.07
2023-02-21T01:30:35.099Z,1006.06
2023-02-21T01:31:35.108Z,1006.07
2023-02-21T01:32:35.127Z,1006.05
2023-02-21T01:33:35.087Z,1006.09
2023-02-21T01:34:36.196Z,1006.00
2023-02-21T01:35:35.112Z,1006.08
2023-02-21T01:36:35.120Z,1006.00
2023-02-21T01:37:35.136Z,1006.08
2023-02-21T01:38:35.145Z,1006.04
2023-02-21T01:39:35.157Z,1006.08
2023-02-21T01:40:35.174Z,1005.98
2023-02-21T01:41:35.182Z,1006.03
2023-02-21T01:42:35.197Z,1006.08
2023-02-21T01:43:35.209Z,1006.05
2023-02-21T01:44:35.221Z,1006.00
2023-02-21T01:45:35.232Z,1005.98
2023-02-21T01:46:35.246Z,1006.00
2023-02-21T01:47:35.257Z,1006.06
2023-02-21T01:48:35.269Z,1005.93
2023-02-21T01:49:35.281Z,1006.00
2023-02-21T01:50:35.315Z,1005.87
2023-02-21T01:51:35.307Z,1005.99
2023-02-21T01:52:35.318Z,1005.83
2023-02-21T01:53:35.341Z,1005.96
2023-02-21T01:54:35.342Z,1005.92
2023-02-21T01:55:35.361Z,1005.94
2023-02-21T01:56:35.374Z,1005.90
2023-02-21T01:57:35.390Z,1005.91
2023-02-21T01:58:35.397Z,1005.93
2023-02-21T01:59:35.407Z,1005.91
2023-02-21T02:00:35.421Z,1006.00
2023-02-21T02:01:35.430Z,1005.89
2023-02-21T02:02:35.443Z,1005.93
2023-02-21T02:03:35.455Z,1005.91
2023-02-21T02:04:35.476Z,1005.82
2023-02-21T02:05:35.481Z,1005.80
2023-02-21T02:06:35.492Z,1005.85
2023-02-21T02:07:35.508Z,1005.86
2023-02-21T02:08:35.518Z,1005.80
2023-02-21T02:09:35.543Z,1005.93
2023-02-21T02:10:35.544Z,1005.82
2023-02-21T02:11:35.558Z,1005.87
2023-02-21T02:12:35.570Z,1005.87
2023-02-21T02:13:35.583Z,1005.80
2023-02-21T02:14:35.592Z,1005.91
2023-02-21T02:15:35.639Z,1005.79
2023-02-21T02:16:35.619Z,1005.85
2023-02-21T02:17:35.633Z,1005.79
2023-02-21T02:18:35.660Z,1005.73
2023-02-21T02:19:35.736Z,1005.79
2023-02-21T02:20:35.670Z,1005.73
2023-02-21T02:21:35.682Z,1005.76
2023-02-21T02:22:35.695Z,1005.85
2023-02-21T02:23:35.707Z,1005.81
2023-02-21T02:24:35.721Z,1005.78
2023-02-21T02:25:35.733Z,1005.81
2023-02-21T02:26:35.766Z,1005.71
2023-02-21T02:27:35.758Z,1005.84
2023-02-21T02:28:35.769Z,1005.79
2023-02-21T02:29:35.785Z,1005.83
2023-02-21T02:30:35.850Z,1005.79
2023-02-21T02:31:35.868Z,1005.85
2023-02-21T02:32:35.822Z,1005.88
2023-02-21T02:33:35.835Z,1005.82
2023-02-21T02:34:35.846Z,1005.89
2023-02-21T02:35:35.866Z,1005.82
2023-02-21T02:36:35.872Z,1005.81
2023-02-21T02:37:35.886Z,1005.82
2023-02-21T02:38:35.898Z,1005.78
2023-02-21T02:39:35.910Z,1005.78
2023-02-21T02:40:35.924Z,1005.73
2023-02-21T02:41:35.937Z,1005.75
2023-02-21T02:42:35.949Z,1005.77
2023-02-21T02:43:35.964Z,1005.70
2023-02-21T02:44:35.973Z,1005.64
2023-02-21T02:45:35.992Z,1005.77
2023-02-21T02:46:36.062Z,1005.77
2023-02-21T02:47:36.011Z,1005.63
2023-02-21T02:48:36.031Z,1005.67
2023-02-21T02:49:36.037Z,1005.76
2023-02-21T02:50:36.050Z,1005.70
2023-02-21T02:51:36.068Z,1005.68
2023-02-21T02:52:36.075Z,1005.63
2023-02-21T02:53:36.139Z,1005.69
2023-02-21T02:54:36.099Z,1005.68
2023-02-21T02:55:36.111Z,1005.68
2023-02-21T02:56:36.127Z,1005.56
2023-02-21T02:57:36.138Z,1005.64
2023-02-21T02:58:36.159Z,1005.64
2023-02-21T02:59:36.172Z,1005.71
2023-02-21T03:00:36.180Z,1005.65
2023-02-21T03:01:36.219Z,1005.62
2023-02-21T03:02:36.204Z,1005.66
2023-02-21T03:03:36.284Z,1005.68
2023-02-21T03:04:36.230Z,1005.60
2023-02-21T03:05:36.241Z,1005.66
2023-02-21T03:06:36.250Z,1005.62
2023-02-21T03:07:36.607Z,1005.62
2023-02-21T03:08:36.276Z,1005.62
2023-02-21T03:09:36.296Z,1005.61
2023-02-21T03:10:36.305Z,1005.64
2023-02-21T03:11:36.312Z,1005.65
2023-02-21T03:12:36.327Z,1005.52
2023-02-21T03:13:36.341Z,1005.60
2023-02-21T03:14:36.356Z,1005.59
2023-02-21T03:15:36.364Z,1005.38
2023-02-21T03:16:36.397Z,1005.55
2023-02-21T03:17:36.400Z,1005.42
2023-02-21T03:18:36.421Z,1005.60
2023-02-21T03:19:36.422Z,1005.57
2023-02-21T03:20:36.454Z,1005.54
2023-02-21T03:21:36.464Z,1005.55
2023-02-21T03:22:36.456Z,1005.53
2023-02-21T03:23:36.470Z,1005.53
2023-02-21T03:24:36.484Z,1005.53
2023-02-21T03:25:36.498Z,1005.51
2023-02-21T03:26:36.508Z,1005.48
2023-02-21T03:27:36.526Z,1005.59
2023-02-21T03:28:36.545Z,1005.54
2023-02-21T03:29:36.556Z,1005.37
2023-02-21T03:30:36.603Z,1005.56
2023-02-21T03:31:36.660Z,1005.54
2023-02-21T03:32:36.585Z,1005.51
2023-02-21T03:33:36.598Z,1005.54
2023-02-21T03:34:36.613Z,1005.51
2023-02-21T03:35:36.626Z,1005.56
2023-02-21T03:36:36.639Z,1005.50
2023-02-21T03:37:36.651Z,1005.47
2023-02-21T03:38:36.664Z,1005.46
2023-02-21T03:39:36.679Z,1005.51
2023-02-21T03:40:36.697Z,1005.53
2023-02-21T03:41:36.714Z,1005.50
2023-02-21T03:42:36.720Z,1005.60
2023-02-21T03:43:36.736Z,1005.47
2023-02-21T03:44:36.770Z,1005.49
2023-02-21T03:45:36.756Z,1005.52
2023-02-21T03:46:37.377Z,1005.57
2023-02-21T03:47:36.781Z,1005.61
2023-02-21T03:48:36.803Z,1005.52
2023-02-21T03:49:36.809Z,1005.64
2023-02-21T03:50:36.822Z,1005.64
2023-02-21T03:51:36.837Z,1005.61
2023-02-21T03:52:36.855Z,1005.57
2023-02-21T03:53:36.867Z,1005.53
2023-02-21T03:54:36.875Z,1005.64
2023-02-21T03:55:36.889Z,1005.59
2023-02-21T03:56:42.031Z,1005.55
2023-02-21T03:57:36.918Z,1005.58
2023-02-21T03:58:38.344Z,1005.46
2023-02-21T03:59:36.942Z,1005.56
2023-02-21T04:00:36.969Z,1005.51
2023-02-21T04:01:36.985Z,1005.49
2023-02-21T04:02:36.986Z,1005.53
2023-02-21T04:03:37.000Z,1005.50
2023-02-21T04:04:37.009Z,1005.46
2023-02-21T04:05:37.024Z,1005.56
2023-02-21T04:06:37.068Z,1005.58
2023-02-21T04:07:37.051Z,1005.58
2023-02-21T04:08:37.062Z,1005.48
2023-02-21T04:09:37.081Z,1005.57
2023-02-21T04:10:46.809Z,1005.61
2023-02-21T04:11:37.103Z,1005.65
2023-02-21T04:12:37.118Z,1005.68
2023-02-21T04:13:37.129Z,1005.65
2023-02-21T04:14:37.143Z,1005.65
2023-02-21T04:15:37.157Z,1005.57
2023-02-21T04:16:37.202Z,1005.60
2023-02-21T04:17:37.188Z,1005.69
2023-02-21T04:18:37.837Z,1005.68
2023-02-21T04:19:37.210Z,1005.72
2023-02-21T04:20:37.226Z,1005.74
2023-02-21T04:21:37.241Z,1005.73
2023-02-21T04:22:37.250Z,1005.75
2023-02-21T04:23:37.265Z,1005.77
2023-02-21T04:24:37.284Z,1005.86
2023-02-21T04:25:37.294Z,1005.76
2023-02-21T04:26:37.301Z,1005.80
2023-02-21T04:27:37.326Z,1005.84
2023-02-21T04:28:37.350Z,1005.86
2023-02-21T04:29:37.350Z,1005.76
2023-02-21T04:30:37.414Z,1005.79
2023-02-21T04:31:37.532Z,1005.73
2023-02-21T04:32:37.415Z,1005.87
2023-02-21T04:33:37.399Z,1005.88
2023-02-21T04:34:37.415Z,1005.85
2023-02-21T04:35:37.425Z,1005.87
2023-02-21T04:36:37.445Z,1005.86
2023-02-21T04:37:37.452Z,1005.86
2023-02-21T04:38:37.464Z,1005.78
2023-02-21T04:39:37.482Z,1005.88
2023-02-21T04:40:37.493Z,1005.87
2023-02-21T04:41:37.506Z,1005.83
2023-02-21T04:42:37.524Z,1005.85
2023-02-21T04:43:37.537Z,1005.90
2023-02-21T04:44:37.548Z,1005.91
2023-02-21T04:45:37.633Z,1005.89
2023-02-21T04:46:37.576Z,1005.86
2023-02-21T04:47:37.586Z,1005.85
2023-02-21T04:48:37.607Z,1005.85
2023-02-21T04:49:37.614Z,1005.80
2023-02-21T04:50:37.627Z,1005.89
2023-02-21T04:51:37.640Z,1005.90
2023-02-21T04:52:37.651Z,1005.89
2023-02-21T04:53:37.667Z,1005.87
2023-02-21T04:54:37.685Z,1005.76
2023-02-21T04:55:37.696Z,1005.90
2023-02-21T04:56:37.894Z,1005.88
2023-02-21T04:57:37.720Z,1005.84
2023-02-21T04:58:44.904Z,1005.78
2023-02-21T04:59:37.747Z,1005.92
2023-02-21T05:00:37.762Z,1005.87
2023-02-21T05:01:37.776Z,1005.82
2023-02-21T05:02:37.784Z,1005.88
2023-02-21T05:03:37.807Z,1005.84
2023-02-21T05:04:37.885Z,1005.86
2023-02-21T05:05:37.825Z,1005.83
2023-02-21T05:06:37.838Z,1005.88
2023-02-21T05:07:37.849Z,1005.87
2023-02-21T05:08:37.864Z,1005.98
2023-02-21T05:09:37.875Z,1005.89
2023-02-21T05:10:45.532Z,1005.79
2023-02-21T05:11:37.898Z,1005.89
2023-02-21T05:12:37.921Z,1005.92
2023-02-21T05:13:37.930Z,1005.86
2023-02-21T05:14:37.941Z,1005.92
2023-02-21T05:15:37.984Z,1005.89
2023-02-21T05:16:38.000Z,1005.92
2023-02-21T05:17:37.980Z,1005.90
2023-02-21T05:18:37.994Z,1005.92
2023-02-21T05:19:38.009Z,1005.93
2023-02-21T05:20:38.031Z,1005.98
2023-02-21T05:21:38.039Z,1005.92
2023-02-21T05:22:38.053Z,1005.91
2023-02-21T05:23:38.056Z,1005.93
2023-02-21T05:24:38.069Z,1005.90
2023-02-21T05:25:38.086Z,1005.94
2023-02-21T05:26:38.133Z,1005.92
2023-02-21T05:27:38.114Z,1005.86
2023-02-21T05:28:38.127Z,1005.88
2023-02-21T05:29:38.144Z,1005.94
2023-02-21T05:30:38.300Z,1005.86
2023-02-21T05:31:38.212Z,1005.81
2023-02-21T05:32:38.176Z,1005.88
2023-02-21T05:33:38.186Z,1005.88
2023-02-21T05:34:38.200Z,1005.84
2023-02-21T05:35:38.215Z,1005.85
2023-02-21T05:36:38.232Z,1005.91
2023-02-21T05:37:38.243Z,1005.88
2023-02-21T05:38:38.252Z,1005.93
2023-02-21T05:39:38.268Z,1006.04
2023-02-21T05:40:38.286Z,1005.96
2023-02-21T05:41:38.308Z,1005.95
2023-02-21T05:42:38.319Z,1005.98
2023-02-21T05:43:38.320Z,1005.99
2023-02-21T05:44:38.335Z,1005.98
2023-02-21T05:45:38.357Z,1005.94
2023-02-21T05:46:38.373Z,1005.98
2023-02-21T05:47:38.393Z,1005.98
2023-02-21T05:48:38.384Z,1005.97
2023-02-21T05:49:38.399Z,1006.08
2023-02-21T05:50:38.421Z,1005.97
2023-02-21T05:51:38.424Z,1005.98
2023-02-21T05:52:38.435Z,1006.02
2023-02-21T05:53:38.450Z,1005.99
2023-02-21T05:54:38.460Z,1006.05
2023-02-21T05:55:38.484Z,1006.00
2023-02-21T05:56:38.488Z,1005.99
2023-02-21T05:57:38.514Z,1006.12
2023-02-21T05:58:38.522Z,1006.06
2023-02-21T05:59:38.523Z,1006.12
2023-02-21T06:00:38.541Z,1006.08
2023-02-21T06:01:38.552Z,1006.18
2023-02-21T06:02:38.592Z,1006.19
2023-02-21T06:03:38.603Z,1006.18
2023-02-21T06:04:38.594Z,1006.19
2023-02-21T06:05:38.614Z,1006.25
2023-02-21T06:06:38.609Z,1006.23
2023-02-21T06:07:38.624Z,1006.27
2023-02-21T06:08:38.636Z,1006.23
2023-02-21T06:09:38.647Z,1006.25
2023-02-21T06:10:38.660Z,1006.24
2023-02-21T06:11:38.686Z,1006.29
2023-02-21T06:12:38.683Z,1006.26
2023-02-21T06:13:38.700Z,1006.28
2023-02-21T06:14:38.709Z,1006.25
2023-02-21T06:15:38.738Z,1006.30
2023-02-21T06:16:38.768Z,1006.34
2023-02-21T06:17:38.747Z,1006.36
2023-02-21T06:18:38.757Z,1006.39
2023-02-21T06:19:38.781Z,1006.38
2023-02-21T06:20:38.790Z,1006.43
2023-02-21T06:21:38.798Z,1006.52
2023-02-21T06:22:38.808Z,1006.38
2023-02-21T06:23:38.819Z,1006.45
2023-02-21T06:24:38.833Z,1006.45
2023-02-21T06:25:38.846Z,1006.47
2023-02-21T06:26:38.860Z,1006.50
2023-02-21T06:27:38.874Z,1006.45
2023-02-21T06:28:38.886Z,1006.41
2023-02-21T06:29:38.902Z,1006.49
2023-02-21T06:30:38.983Z,1006.47
2023-02-21T06:31:39.075Z,1006.50
2023-02-21T06:32:38.939Z,1006.48
2023-02-21T06:33:38.952Z,1006.59
2023-02-21T06:34:38.964Z,1006.59
2023-02-21T06:35:38.980Z,1006.55
2023-02-21T06:36:38.992Z,1006.60
2023-02-21T06:37:39.005Z,1006.63
2023-02-21T06:38:39.019Z,1006.60
2023-02-21T06:39:39.031Z,1006.55
2023-02-21T06:40:39.046Z,1006.60
2023-02-21T06:41:39.058Z,1006.66
2023-02-21T06:42:39.067Z,1006.68
2023-02-21T06:43:39.081Z,1006.65
2023-02-21T06:44:39.093Z,1006.66
2023-02-21T06:45:39.107Z,1006.70
2023-02-21T06:46:39.121Z,1006.69
2023-02-21T06:47:39.135Z,1006.65
2023-02-21T06:48:39.145Z,1006.65
2023-02-21T06:49:39.164Z,1006.74
2023-02-21T06:50:39.174Z,1006.76
2023-02-21T06:51:39.186Z,1006.77
2023-02-21T06:52:39.199Z,1006.70
2023-02-21T06:53:39.211Z,1006.74
2023-02-21T06:54:39.235Z,1006.80
2023-02-21T06:55:39.237Z,1006.83
2023-02-21T06:56:39.251Z,1006.87
2023-02-21T06:57:39.290Z,1006.91
2023-02-21T06:58:39.274Z,1006.88
2023-02-21T06:59:39.286Z,1006.90
2023-02-21T07:00:39.297Z,1006.89
2023-02-21T07:01:39.312Z,1006.96
2023-02-21T07:02:39.334Z,1006.96
2023-02-21T07:03:39.336Z,1006.95
2023-02-21T07:04:39.441Z,1006.94
2023-02-21T07:05:39.370Z,1006.96
2023-02-21T07:06:39.376Z,1007.00
2023-02-21T07:07:39.391Z,1006.99
2023-02-21T07:08:39.399Z,1007.03
2023-02-21T07:09:39.416Z,1007.08
2023-02-21T07:10:39.425Z,1007.02
2023-02-21T07:11:39.441Z,1007.11
2023-02-21T07:12:39.450Z,1007.06
2023-02-21T07:13:39.463Z,1007.12
2023-02-21T07:14:39.476Z,1007.12
2023-02-21T07:15:39.518Z,1007.21
2023-02-21T07:16:39.508Z,1007.09
2023-02-21T07:17:39.513Z,1007.23
2023-02-21T07:18:39.525Z,1007.28
2023-02-21T07:19:39.540Z,1007.31
2023-02-21T07:20:39.550Z,1007.38
2023-02-21T07:21:39.563Z,1007.43
2023-02-21T07:22:39.579Z,1007.40
2023-02-21T07:23:39.587Z,1007.42
2023-02-21T07:24:39.598Z,1007.53
2023-02-21T07:25:39.616Z,1007.49
2023-02-21T07:26:39.625Z,1007.46
2023-02-21T07:27:39.647Z,1007.50
2023-02-21T07:28:39.655Z,1007.50
2023-02-21T07:29:39.661Z,1007.60
2023-02-21T07:30:39.706Z,1007.58
2023-02-21T07:31:39.825Z,1007.60
2023-02-21T07:32:39.699Z,1007.62
2023-02-21T07:33:39.713Z,1007.62
2023-02-21T07:34:39.728Z,1007.66
2023-02-21T07:35:39.744Z,1007.68
2023-02-21T07:36:40.335Z,1007.63
2023-02-21T07:37:39.765Z,1007.67
2023-02-21T07:38:39.783Z,1007.66
2023-02-21T07:39:39.793Z,1007.69
2023-02-21T07:40:39.803Z,1007.61
2023-02-21T07:41:39.816Z,1007.73
2023-02-21T07:42:39.830Z,1007.64
2023-02-21T07:43:39.841Z,1007.65
2023-02-21T07:44:39.875Z,1007.65
2023-02-21T07:45:39.880Z,1007.66
2023-02-21T07:46:39.893Z,1007.67
2023-02-21T07:47:39.905Z,1007.72
2023-02-21T07:48:39.912Z,1007.74
2023-02-21T07:49:39.920Z,1007.70
2023-02-21T07:50:39.933Z,1007.70
2023-02-21T07:51:39.944Z,1007.66
2023-02-21T07:52:39.976Z,1007.69
2023-02-21T07:53:39.974Z,1007.68
2023-02-21T07:54:39.986Z,1007.70
2023-02-21T07:55:39.995Z,1007.72
2023-02-21T07:56:40.041Z,1007.70
2023-02-21T07:57:40.028Z,1007.68
2023-02-21T07:58:40.050Z,1007.77
2023-02-21T07:59:40.059Z,1007.76
2023-02-21T08:00:40.639Z,1007.83
2023-02-21T08:01:40.129Z,1007.85
2023-02-21T08:02:40.087Z,1007.83
2023-02-21T08:03:40.100Z,1007.85
2023-02-21T08:04:40.153Z,1007.80
2023-02-21T08:05:40.130Z,1007.88
2023-02-21T08:06:40.141Z,1007.93
2023-02-21T08:07:40.154Z,1007.90
2023-02-21T08:08:40.167Z,1007.89
2023-02-21T08:09:40.181Z,1007.94
2023-02-21T08:10:40.194Z,1007.92
2023-02-21T08:11:40.230Z,1007.98
2023-02-21T08:12:40.226Z,1007.91
2023-02-21T08:13:40.244Z,1008.04
2023-02-21T08:14:40.261Z,1008.05
2023-02-21T08:15:40.258Z,1008.04
2023-02-21T08:16:40.289Z,1008.13
2023-02-21T08:17:40.285Z,1008.14
2023-02-21T08:18:40.299Z,1008.10
2023-02-21T08:19:40.309Z,1008.17
2023-02-21T08:20:40.326Z,1008.15
2023-02-21T08:21:40.344Z,1008.18
2023-02-21T08:22:40.355Z,1008.25
2023-02-21T08:23:40.364Z,1008.14
2023-02-21T08:24:40.381Z,1008.13
2023-02-21T08:25:40.393Z,1008.16
2023-02-21T08:26:40.445Z,1008.17
2023-02-21T08:27:40.425Z,1008.18
2023-02-21T08:28:40.429Z,1008.26
2023-02-21T08:29:40.446Z,1008.22
2023-02-21T08:30:40.572Z,1008.19
2023-02-21T08:31:40.515Z,1008.26
2023-02-21T08:32:40.490Z,1008.29
2023-02-21T08:33:40.522Z,1008.21
2023-02-21T08:34:40.515Z,1008.22
2023-02-21T08:35:40.529Z,1008.21
2023-02-21T08:36:40.548Z,1008.25
2023-02-21T08:37:40.558Z,1008.24
2023-02-21T08:38:40.570Z,1008.20
2023-02-21T08:39:40.589Z,1008.22
2023-02-21T08:40:40.612Z,1008.23
2023-02-21T08:41:40.616Z,1008.29
2023-02-21T08:42:40.628Z,1008.23
2023-02-21T08:43:40.642Z,1008.20
2023-02-21T08:44:40.665Z,1008.20
2023-02-21T08:45:40.671Z,1008.22
2023-02-21T08:46:40.866Z,1008.27
2023-02-21T08:47:40.703Z,1008.26
2023-02-21T08:48:40.715Z,1008.38
2023-02-21T08:49:40.732Z,1008.21
2023-02-21T08:50:40.757Z,1008.25
2023-02-21T08:51:40.758Z,1008.28
2023-02-21T08:52:40.774Z,1008.32
2023-02-21T08:53:40.790Z,1008.29
2023-02-21T08:54:40.806Z,1008.23
2023-02-21T08:55:40.818Z,1008.27
2023-02-21T08:56:40.842Z,1008.28
2023-02-21T08:57:40.854Z,1008.22
2023-02-21T08:58:40.862Z,1008.29
2023-02-21T08:59:40.877Z,1008.30
2023-02-21T09:00:40.958Z,1008.26
2023-02-21T09:01:40.919Z,1008.26
2023-02-21T09:02:40.921Z,1008.24
2023-02-21T09:03:40.935Z,1008.29
2023-02-21T09:04:40.950Z,1008.32
2023-02-21T09:05:40.965Z,1008.35
2023-02-21T09:06:40.980Z,1008.34
2023-02-21T09:07:41.001Z,1008.37
2023-02-21T09:08:41.012Z,1008.40
2023-02-21T09:09:41.030Z,1008.40
2023-02-21T09:10:41.101Z,1008.41
2023-02-21T09:11:41.052Z,1008.45
2023-02-21T09:12:41.074Z,1008.54
2023-02-21T09:13:41.082Z,1008.43
2023-02-21T09:14:41.098Z,1008.43
2023-02-21T09:15:41.118Z,1008.50
2023-02-21T09:16:41.160Z,1008.50
2023-02-21T09:17:41.145Z,1008.51
2023-02-21T09:18:41.156Z,1008.45
2023-02-21T09:19:41.177Z,1008.44
2023-02-21T09:20:41.188Z,1008.44
2023-02-21T09:21:41.204Z,1008.50
2023-02-21T09:22:41.227Z,1008.49
2023-02-21T09:23:41.232Z,1008.45
2023-02-21T09:24:41.252Z,1008.43
2023-02-21T09:25:41.265Z,1008.50
2023-02-21T09:26:41.281Z,1008.45
2023-02-21T09:27:41.297Z,1008.54
2023-02-21T09:28:41.308Z,1008.46
2023-02-21T09:29:46.290Z,1008.54
2023-02-21T09:30:41.402Z,1008.54
2023-02-21T09:31:41.421Z,1008.58
2023-02-21T09:32:41.417Z,1008.58
2023-02-21T09:33:41.386Z,1008.57
2023-02-21T09:34:41.459Z,1008.57
2023-02-21T09:35:41.417Z,1008.63
2023-02-21T09:36:41.426Z,1008.59
2023-02-21T09:37:41.446Z,1008.60
2023-02-21T09:38:41.459Z,1008.60
2023-02-21T09:39:41.475Z,1008.58
2023-02-21T09:40:41.489Z,1008.61
2023-02-21T09:41:41.506Z,1008.62
2023-02-21T09:42:41.529Z,1008.56
2023-02-21T09:43:41.533Z,1008.61
2023-02-21T09:44:41.550Z,1008.67
2023-02-21T09:45:41.636Z,1008.71
2023-02-21T09:46:41.580Z,1008.66
2023-02-21T09:47:41.595Z,1008.70
2023-02-21T09:48:41.615Z,1008.79
2023-02-21T09:49:41.627Z,1008.78
2023-02-21T09:50:41.638Z,1008.78
2023-02-21T09:51:41.658Z,1008.72
2023-02-21T09:52:41.669Z,1008.73
2023-02-21T09:53:41.687Z,1008.72
2023-02-21T09:54:41.701Z,1008.75
2023-02-21T09:55:41.714Z,1008.75
2023-02-21T09:56:41.731Z,1008.74
2023-02-21T09:57:41.745Z,1008.78
2023-02-21T09:58:41.769Z,1008.76
2023-02-21T09:59:41.786Z,1008.77
2023-02-21T10:00:41.797Z,1008.85
2023-02-21T10:01:41.819Z,1008.75
2023-02-21T10:02:41.836Z,1008.87
2023-02-21T10:03:41.836Z,1008.73
2023-02-21T10:04:41.885Z,1008.77
2023-02-21T10:05:41.869Z,1008.82
2023-02-21T10:06:41.883Z,1008.86
2023-02-21T10:07:41.904Z,1008.87
2023-02-21T10:08:41.919Z,1008.79
2023-02-21T10:09:41.932Z,1008.82
2023-02-21T10:10:41.948Z,1008.91
2023-02-21T10:11:41.964Z,1008.81
2023-02-21T10:12:41.978Z,1008.77
2023-02-21T10:13:41.994Z,1008.84
2023-02-21T10:14:42.009Z,1008.86
2023-02-21T10:15:42.035Z,1008.87
2023-02-21T10:16:42.107Z,1008.90
2023-02-21T10:17:42.059Z,1008.95
2023-02-21T10:18:42.080Z,1008.93
2023-02-21T10:19:42.089Z,1008.94
2023-02-21T10:20:42.125Z,1008.94
2023-02-21T10:21:42.135Z,1008.91
2023-02-21T10:22:42.135Z,1008.89
2023-02-21T10:23:42.154Z,1008.98
2023-02-21T10:24:42.179Z,1008.92
2023-02-21T10:25:42.186Z,1008.88
2023-02-21T10:26:42.213Z,1008.90
2023-02-21T10:27:42.219Z,1008.86
2023-02-21T10:28:42.235Z,1008.82
2023-02-21T10:29:42.252Z,1008.91
2023-02-21T10:30:42.326Z,1008.82
2023-02-21T10:31:42.452Z,1008.93
2023-02-21T10:32:42.301Z,1008.83
2023-02-21T10:33:42.315Z,1008.99
2023-02-21T10:34:42.331Z,1008.98
2023-02-21T10:35:42.348Z,1009.00
2023-02-21T10:36:42.365Z,1009.02
2023-02-21T10:37:42.381Z,1008.96
2023-02-21T10:38:42.394Z,1009.03
2023-02-21T10:39:42.418Z,1008.98
2023-02-21T10:40:42.429Z,1009.03
2023-02-21T10:41:42.454Z,1009.04
2023-02-21T10:42:42.464Z,1009.06
2023-02-21T10:43:42.479Z,1008.92
2023-02-21T10:44:42.496Z,1008.99
2023-02-21T10:45:43.709Z,1008.98
2023-02-21T10:46:42.527Z,1009.02
2023-02-21T10:47:42.545Z,1009.11
2023-02-21T10:48:42.566Z,1009.11
2023-02-21T10:49:42.594Z,1008.96
2023-02-21T10:50:42.599Z,1009.02
2023-02-21T10:51:42.611Z,1009.13
2023-02-21T10:52:42.714Z,1009.07
2023-02-21T10:53:42.641Z,1009.14
2023-02-21T10:54:42.660Z,1009.09
2023-02-21T10:55:42.676Z,1008.99
2023-02-21T10:56:42.691Z,1008.95
2023-02-21T10:57:42.709Z,1009.11
2023-02-21T10:58:42.725Z,1008.86
2023-02-21T10:59:42.744Z,1009.02
2023-02-21T11:00:42.757Z,1009.09
2023-02-21T11:01:42.811Z,1009.03
2023-02-21T11:02:42.880Z,1008.93
2023-02-21T11:03:42.804Z,1008.97
2023-02-21T11:04:42.820Z,1008.99
2023-02-21T11:05:42.840Z,1009.01
2023-02-21T11:06:42.855Z,1009.05
2023-02-21T11:07:42.886Z,1008.94
2023-02-21T11:08:42.907Z,1009.02
2023-02-21T11:09:42.925Z,1009.05
2023-02-21T11:10:42.932Z,1009.17
2023-02-21T11:11:42.941Z,1009.06
2023-02-21T11:12:42.953Z,1009.06
2023-02-21T11:13:42.979Z,1009.14
2023-02-21T11:14:42.981Z,1008.99
2023-02-21T11:15:43.041Z,1009.05
2023-02-21T11:16:43.034Z,1009.04
2023-02-21T11:17:43.042Z,1008.95
2023-02-21T11:18:43.057Z,1008.85
2023-02-21T11:19:43.075Z,1008.86
2023-02-21T11:20:43.094Z,1008.99
2023-02-21T11:21:43.111Z,1009.12
2023-02-21T11:22:43.135Z,1008.90
2023-02-21T11:23:43.138Z,1008.98
2023-02-21T11:24:43.152Z,1009.08
2023-02-21T11:25:43.169Z,1009.04
2023-02-21T11:26:43.188Z,1009.00
2023-02-21T11:27:44.974Z,1009.00
2023-02-21T11:28:43.216Z,1009.05
2023-02-21T11:29:43.233Z,1009.03
2023-02-21T11:30:43.336Z,1009.01
2023-02-21T11:31:43.382Z,1009.06
2023-02-21T11:32:43.281Z,1008.98
2023-02-21T11:33:43.300Z,1008.93
2023-02-21T11:34:43.315Z,1008.98
2023-02-21T11:35:43.334Z,1009.01
2023-02-21T11:36:43.354Z,1008.89
2023-02-21T11:37:43.369Z,1009.01
2023-02-21T11:38:43.427Z,1009.00
2023-02-21T11:39:43.400Z,1008.99
2023-02-21T11:40:43.419Z,1009.01
2023-02-21T11:41:43.438Z,1009.10
2023-02-21T11:42:43.457Z,1008.99
2023-02-21T11:43:43.466Z,1009.17
2023-02-21T11:44:43.485Z,1009.04
2023-02-21T11:45:43.526Z,1009.12
2023-02-21T11:46:43.518Z,1009.06
2023-02-21T11:47:43.534Z,1009.06
2023-02-21T11:48:43.549Z,1009.05
2023-02-21T11:49:43.574Z,1009.04
2023-02-21T11:50:43.581Z,1009.07
2023-02-21T11:51:43.599Z,1009.13
2023-02-21T11:52:43.613Z,1009.06
2023-02-21T11:53:43.640Z,1009.11
2023-02-21T11:54:43.648Z,1009.17
2023-02-21T11:55:43.665Z,1009.05
2023-02-21T11:56:43.685Z,1008.91
2023-02-21T11:57:43.696Z,1008.93
2023-02-21T11:58:43.712Z,1009.14
2023-02-21T11:59:43.726Z,1008.97
2023-02-21T12:00:43.749Z,1009.03
2023-02-21T12:01:43.764Z,1009.03
2023-02-21T12:02:43.818Z,1009.00
2023-02-21T12:03:43.790Z,1009.08
2023-02-21T12:04:43.810Z,1009.01
2023-02-21T12:05:43.848Z,1009.17